sensor_id;sensor_type;location;lat;lon;timestamp;pressure;altitude;pressure_sealevel;temperature;humidity
78745;BME280;68064;53.100;8.824;2023-04-15T00:00:16;101111.63;;;5.65;72.35
78745;BME280;68064;53.100;8.824;2023-04-15T00:01:17;101128.38;;;5.75;70.82
78745;BME280;68064;53.100;8.824;2023-04-15T00:02:18;101123.22;;;5.73;74.77
78745;BME280;68064;53.100;8.824;2023-04-15T00:03:19;101137.63;;;5.74;71.37
78745;BME280;68064;53.100;8.824;2023-04-15T00:04:21;101124.75;;;5.71;70.79
78745;BME280;68064;53.100;8.824;2023-04-15T00:05:23;101134.34;;;5.75;70.10
78745;BME280;68064;53.100;8.824;2023-04-15T00:06:24;101134.13;;;5.72;74.09
78745;BME280;68064;53.100;8.824;2023-04-15T00:07:25;101131.06;;;5.65;74.81
78745;BME280;68064;53.100;8.824;2023-04-15T00:08:26;101133.94;;;5.69;71.63
78745;BME280;68064;53.100;8.824;2023-04-15T00:09:27;101136.78;;;5.74;73.51
78745;BME280;68064;53.100;8.824;2023-04-15T00:10:28;101116.88;;;5.55;71.21
78745;BME280;68064;53.100;8.824;2023-04-15T00:11:29;101128.78;;;5.68;71.77
78745;BME280;68064;53.100;8.824;2023-04-15T00:12:31;101135.91;;;5.73;70.85
78745;BME280;68064;53.100;8.824;2023-04-15T00:13:32;101138.84;;;5.79;71.37
78745;BME280;68064;53.100;8.824;2023-04-15T00:14:34;101127.72;;;5.77;75.38
78745;BME280;68064;53.100;8.824;2023-04-15T00:15:35;101136.09;;;5.76;73.28
78745;BME280;68064;53.100;8.824;2023-04-15T00:16:36;101138.94;;;5.81;76.80
78745;BME280;68064;53.100;8.824;2023-04-15T00:17:37;101127.19;;;5.70;72.64
78745;BME280;68064;53.100;8.824;2023-04-15T00:18:38;101132.97;;;5.67;71.80
78745;BME280;68064;53.100;8.824;2023-04-15T00:19:39;101135.09;;;5.74;76.59
78745;BME280;68064;53.100;8.824;2023-04-15T00:20:42;101115.53;;;5.60;73.49
78745;BME280;68064;53.100;8.824;2023-04-15T00:21:43;101129.94;;;5.73;76.78
78745;BME280;68064;53.100;8.824;2023-04-15T00:22:44;101130.63;;;5.70;73.47
78745;BME280;68064;53.100;8.824;2023-04-15T00:23:45;101137.44;;;5.71;73.85
78745;BME280;68064;53.100;8.824;2023-04-15T00:24:46;101105.75;;;5.53;73.78
78745;BME280;68064;53.100;8.824;2023-04-15T00:25:47;101139.34;;;5.74;72.51
78745;BME280;68064;53.100;8.824;2023-04-15T00:26:48;101112.25;;;5.61;71.75
78745;BME280;68064;53.100;8.824;2023-04-15T00:27:49;101116.72;;;5.65;73.93
78745;BME280;68064;53.100;8.824;2023-04-15T00:28:50;101115.47;;;5.72;76.99
78745;BME280;68064;53.100;8.824;2023-04-15T00:29:51;101103.41;;;5.56;72.88
78745;BME280;68064;53.100;8.824;2023-04-15T00:30:52;101121.22;;;5.69;75.27
78745;BME280;68064;53.100;8.824;2023-04-15T00:31:53;101131.50;;;5.71;72.86
78745;BME280;68064;53.100;8.824;2023-04-15T00:32:55;101136.47;;;5.69;72.76
78745;BME280;68064;53.100;8.824;2023-04-15T00:33:55;101123.78;;;5.69;72.26
78745;BME280;68064;53.100;8.824;2023-04-15T00:34:56;101121.63;;;5.75;77.04
78745;BME280;68064;53.100;8.824;2023-04-15T00:35:59;101124.75;;;5.71;74.06
78745;BME280;68064;53.100;8.824;2023-04-15T00:37:00;101127.81;;;5.79;77.18
78745;BME280;68064;53.100;8.824;2023-04-15T00:38:01;101124.09;;;5.74;75.15
78745;BME280;68064;53.100;8.824;2023-04-15T00:39:02;101124.88;;;5.73;72.68
78745;BME280;68064;53.100;8.824;2023-04-15T00:40:03;101130.47;;;5.80;78.29
78745;BME280;68064;53.100;8.824;2023-04-15T00:41:04;101112.84;;;5.70;77.77
78745;BME280;68064;53.100;8.824;2023-04-15T00:42:05;101121.34;;;5.71;76.09
78745;BME280;68064;53.100;8.824;2023-04-15T00:43:06;101125.19;;;5.77;79.16
78745;BME280;68064;53.100;8.824;2023-04-15T00:44:07;101116.06;;;5.68;74.75
78745;BME280;68064;53.100;8.824;2023-04-15T00:45:09;101126.91;;;5.78;78.53
78745;BME280;68064;53.100;8.824;2023-04-15T00:46:12;101118.31;;;5.76;78.46
78745;BME280;68064;53.100;8.824;2023-04-15T00:47:14;101121.22;;;5.69;76.04
78745;BME280;68064;53.100;8.824;2023-04-15T00:48:17;101112.44;;;5.64;77.70
78745;BME280;68064;53.100;8.824;2023-04-15T00:49:18;101125.44;;;5.69;75.79
78745;BME280;68064;53.100;8.824;2023-04-15T00:50:19;101123.88;;;5.71;76.86
78745;BME280;68064;53.100;8.824;2023-04-15T00:51:22;101125.06;;;5.76;79.18
78745;BME280;68064;53.100;8.824;2023-04-15T00:52:23;101126.44;;;5.71;76.19
78745;BME280;68064;53.100;8.824;2023-04-15T00:53:24;101098.13;;;5.53;76.48
78745;BME280;68064;53.100;8.824;2023-04-15T00:54:25;101109.78;;;5.63;74.92
78745;BME280;68064;53.100;8.824;2023-04-15T00:55:26;101101.88;;;5.58;76.63
78745;BME280;68064;53.100;8.824;2023-04-15T00:56:28;101107.28;;;5.76;80.80
78745;BME280;68064;53.100;8.824;2023-04-15T00:57:29;101110.22;;;5.82;80.99
78745;BME280;68064;53.100;8.824;2023-04-15T00:58:30;101106.13;;;5.71;78.48
78745;BME280;68064;53.100;8.824;2023-04-15T00:59:32;101110.78;;;5.78;79.95
78745;BME280;68064;53.100;8.824;2023-04-15T01:00:33;101094.59;;;5.76;78.94
78745;BME280;68064;53.100;8.824;2023-04-15T01:01:35;101093.81;;;5.77;78.71
78745;BME280;68064;53.100;8.824;2023-04-15T01:02:36;101076.22;;;5.67;79.26
78745;BME280;68064;53.100;8.824;2023-04-15T01:03:38;101092.03;;;5.76;78.29
78745;BME280;68064;53.100;8.824;2023-04-15T01:04:39;101092.16;;;5.77;78.83
78745;BME280;68064;53.100;8.824;2023-04-15T01:05:41;101080.91;;;5.74;77.36
78745;BME280;68064;53.100;8.824;2023-04-15T01:06:44;101081.19;;;5.78;78.02
78745;BME280;68064;53.100;8.824;2023-04-15T01:07:46;101081.41;;;5.81;80.08
78745;BME280;68064;53.100;8.824;2023-04-15T01:08:47;101085.38;;;5.78;78.86
78745;BME280;68064;53.100;8.824;2023-04-15T01:09:49;101078.84;;;5.81;81.38
78745;BME280;68064;53.100;8.824;2023-04-15T01:10:50;101085.59;;;5.81;80.37
78745;BME280;68064;53.100;8.824;2023-04-15T01:11:52;101077.97;;;5.81;81.79
78745;BME280;68064;53.100;8.824;2023-04-15T01:12:53;101083.94;;;5.81;79.64
78745;BME280;68064;53.100;8.824;2023-04-15T01:13:54;101076.03;;;5.77;78.06
78745;BME280;68064;53.100;8.824;2023-04-15T01:14:55;101076.03;;;5.77;78.74
78745;BME280;68064;53.100;8.824;2023-04-15T01:15:56;101079.75;;;5.82;79.91
78745;BME280;68064;53.100;8.824;2023-04-15T01:16:57;101073.50;;;5.77;76.04
78745;BME280;68064;53.100;8.824;2023-04-15T01:17:59;101079.47;;;5.77;75.84
78745;BME280;68064;53.100;8.824;2023-04-15T01:19:01;101088.94;;;5.80;76.60
78745;BME280;68064;53.100;8.824;2023-04-15T01:20:02;101078.66;;;5.78;75.90
78745;BME280;68064;53.100;8.824;2023-04-15T01:21:04;101083.59;;;5.89;80.79
78745;BME280;68064;53.100;8.824;2023-04-15T01:22:07;101072.03;;;5.80;79.15
78745;BME280;68064;53.100;8.824;2023-04-15T01:23:09;101082.63;;;5.87;82.01
78745;BME280;68064;53.100;8.824;2023-04-15T01:24:12;101085.94;;;5.85;79.90
78745;BME280;68064;53.100;8.824;2023-04-15T01:25:17;101083.78;;;5.92;82.35
78745;BME280;68064;53.100;8.824;2023-04-15T01:26:23;101082.72;;;5.88;80.46
78745;BME280;68064;53.100;8.824;2023-04-15T01:27:26;101069.94;;;5.75;78.71
78745;BME280;68064;53.100;8.824;2023-04-15T01:28:28;101063.34;;;5.77;80.45
78745;BME280;68064;53.100;8.824;2023-04-15T01:29:35;101075.44;;;5.81;79.31
78745;BME280;68064;53.100;8.824;2023-04-15T01:30:39;101061.84;;;5.67;76.98
78745;BME280;68064;53.100;8.824;2023-04-15T01:31:40;101074.38;;;5.77;76.18
78745;BME280;68064;53.100;8.824;2023-04-15T01:32:41;101065.75;;;5.75;78.67
78745;BME280;68064;53.100;8.824;2023-04-15T01:33:43;101055.13;;;5.68;76.52
78745;BME280;68064;53.100;8.824;2023-04-15T01:34:49;101073.78;;;5.81;77.03
78745;BME280;68064;53.100;8.824;2023-04-15T01:35:52;101075.97;;;5.89;80.80
78745;BME280;68064;53.100;8.824;2023-04-15T01:36:54;101073.09;;;5.84;79.06
78745;BME280;68064;53.100;8.824;2023-04-15T01:38:02;101063.72;;;5.83;79.20
78745;BME280;68064;53.100;8.824;2023-04-15T01:39:04;101074.78;;;5.83;78.88
78745;BME280;68064;53.100;8.824;2023-04-15T01:40:06;101072.31;;;5.85;79.40
78745;BME280;68064;53.100;8.824;2023-04-15T01:41:08;101032.16;;;5.66;80.09
78745;BME280;68064;53.100;8.824;2023-04-15T01:42:11;101068.41;;;5.77;77.51
78745;BME280;68064;53.100;8.824;2023-04-15T01:43:12;101082.47;;;5.85;75.45
78745;BME280;68064;53.100;8.824;2023-04-15T01:44:15;101066.06;;;5.80;78.08
78745;BME280;68064;53.100;8.824;2023-04-15T01:45:17;101057.38;;;5.76;77.65
78745;BME280;68064;53.100;8.824;2023-04-15T01:46:18;101090.66;;;5.93;80.01
78745;BME280;68064;53.100;8.824;2023-04-15T01:47:19;101076.16;;;5.92;80.04
78745;BME280;68064;53.100;8.824;2023-04-15T01:48:24;101082.03;;;5.91;79.88
78745;BME280;68064;53.100;8.824;2023-04-15T01:49:25;101073.34;;;5.87;79.73
78745;BME280;68064;53.100;8.824;2023-04-15T01:50:27;101076.28;;;5.93;82.50
78745;BME280;68064;53.100;8.824;2023-04-15T01:51:28;101076.94;;;5.91;81.23
78745;BME280;68064;53.100;8.824;2023-04-15T01:52:29;101067.25;;;5.85;79.09
78745;BME280;68064;53.100;8.824;2023-04-15T01:53:31;101075.63;;;5.84;77.61
78745;BME280;68064;53.100;8.824;2023-04-15T01:54:32;101069.13;;;5.88;80.08
78745;BME280;68064;53.100;8.824;2023-04-15T01:55:33;101069.31;;;5.91;80.98
78745;BME280;68064;53.100;8.824;2023-04-15T01:56:34;101072.25;;;5.83;78.59
78745;BME280;68064;53.100;8.824;2023-04-15T01:57:37;101071.47;;;5.98;82.77
78745;BME280;68064;53.100;8.824;2023-04-15T01:58:39;101065.31;;;5.94;81.20
78745;BME280;68064;53.100;8.824;2023-04-15T01:59:40;101071.28;;;5.95;80.83
78745;BME280;68064;53.100;8.824;2023-04-15T02:00:41;101071.28;;;5.95;79.86
78745;BME280;68064;53.100;8.824;2023-04-15T02:01:42;101068.66;;;5.93;80.00
78745;BME280;68064;53.100;8.824;2023-04-15T02:02:44;101070.13;;;5.90;78.21
78745;BME280;68064;53.100;8.824;2023-04-15T02:03:45;101065.03;;;5.90;78.01
78745;BME280;68064;53.100;8.824;2023-04-15T02:04:46;101069.31;;;5.91;77.75
78745;BME280;68064;53.100;8.824;2023-04-15T02:05:48;101068.06;;;5.97;80.29
78745;BME280;68064;53.100;8.824;2023-04-15T02:06:49;101070.50;;;5.96;79.85
78745;BME280;68064;53.100;8.824;2023-04-15T02:07:50;101075.47;;;5.94;80.84
78745;BME280;68064;53.100;8.824;2023-04-15T02:08:51;101070.13;;;5.90;79.14
78745;BME280;68064;53.100;8.824;2023-04-15T02:09:53;101078.72;;;5.92;77.99
78745;BME280;68064;53.100;8.824;2023-04-15T02:10:54;101076.56;;;5.98;79.25
78745;BME280;68064;53.100;8.824;2023-04-15T02:11:58;101070.59;;;5.97;80.62
78745;BME280;68064;53.100;8.824;2023-04-15T02:13:00;101076.56;;;5.98;79.44
78745;BME280;68064;53.100;8.824;2023-04-15T02:14:02;101076.56;;;5.98;79.56
78745;BME280;68064;53.100;8.824;2023-04-15T02:15:03;101075.09;;;6.01;80.01
78745;BME280;68064;53.100;8.824;2023-04-15T02:16:14;101074.63;;;6.07;81.92
78745;BME280;68064;53.100;8.824;2023-04-15T02:17:15;101073.53;;;6.03;80.87
78745;BME280;68064;53.100;8.824;2023-04-15T02:18:16;101075.22;;;6.03;80.79
78745;BME280;68064;53.100;8.824;2023-04-15T02:19:18;101076.00;;;6.02;79.25
78745;BME280;68064;53.100;8.824;2023-04-15T02:20:20;101072.00;;;6.05;81.22
78745;BME280;68064;53.100;8.824;2023-04-15T02:21:22;101063.69;;;6.08;81.59
78745;BME280;68064;53.100;8.824;2023-04-15T02:22:26;101068.00;;;6.09;80.29
78745;BME280;68064;53.100;8.824;2023-04-15T02:23:27;101070.81;;;6.13;82.09
78745;BME280;68064;53.100;8.824;2023-04-15T02:24:30;101061.31;;;6.11;82.16
78745;BME280;68064;53.100;8.824;2023-04-15T02:25:31;101073.84;;;6.08;79.27
78745;BME280;68064;53.100;8.824;2023-04-15T02:26:33;101060.38;;;6.09;80.01
78745;BME280;68064;53.100;8.824;2023-04-15T02:27:35;101069.06;;;6.12;79.47
78745;BME280;68064;53.100;8.824;2023-04-15T02:28:37;101076.00;;;6.15;79.72
78745;BME280;68064;53.100;8.824;2023-04-15T02:29:39;101076.97;;;6.17;80.52
78745;BME280;68064;53.100;8.824;2023-04-15T02:30:40;101072.78;;;6.17;81.66
78745;BME280;68064;53.100;8.824;2023-04-15T02:31:41;101076.78;;;6.14;81.05
78745;BME280;68064;53.100;8.824;2023-04-15T02:32:43;101070.81;;;6.13;78.84
78745;BME280;68064;53.100;8.824;2023-04-15T02:33:44;101075.31;;;6.17;80.03
78745;BME280;68064;53.100;8.824;2023-04-15T02:34:46;101064.00;;;6.12;80.41
78745;BME280;68064;53.100;8.824;2023-04-15T02:35:47;101065.84;;;6.15;78.72
78745;BME280;68064;53.100;8.824;2023-04-15T02:36:48;101063.28;;;6.15;80.30
78745;BME280;68064;53.100;8.824;2023-04-15T02:37:49;101072.78;;;6.17;80.61
78745;BME280;68064;53.100;8.824;2023-04-15T02:38:50;101067.56;;;6.16;82.30
78745;BME280;68064;53.100;8.824;2023-04-15T02:39:51;101069.25;;;6.15;80.77
78745;BME280;68064;53.100;8.824;2023-04-15T02:40:52;101074.22;;;6.14;80.79
78745;BME280;68064;53.100;8.824;2023-04-15T02:41:56;101071.69;;;6.14;80.24
78745;BME280;68064;53.100;8.824;2023-04-15T02:42:58;101081.47;;;6.21;81.86
78745;BME280;68064;53.100;8.824;2023-04-15T02:44:00;101077.75;;;6.16;79.57
78745;BME280;68064;53.100;8.824;2023-04-15T02:45:02;101074.34;;;6.15;80.74
78745;BME280;68064;53.100;8.824;2023-04-15T02:46:03;101083.25;;;6.22;78.16
78745;BME280;68064;53.100;8.824;2023-04-15T02:47:05;101071.00;;;6.16;79.28
78745;BME280;68064;53.100;8.824;2023-04-15T02:48:05;101077.34;;;6.23;82.29
78745;BME280;68064;53.100;8.824;2023-04-15T02:49:07;101076.28;;;6.19;81.23
78745;BME280;68064;53.100;8.824;2023-04-15T02:50:11;101076.28;;;6.19;81.09
78745;BME280;68064;53.100;8.824;2023-04-15T02:51:13;101084.09;;;6.22;80.93
78745;BME280;68064;53.100;8.824;2023-04-15T02:52:15;101079.91;;;6.23;80.13
78745;BME280;68064;53.100;8.824;2023-04-15T02:53:16;101082.34;;;6.21;80.86
78745;BME280;68064;53.100;8.824;2023-04-15T02:54:18;101080.59;;;6.20;79.01
78745;BME280;68064;53.100;8.824;2023-04-15T02:55:24;101073.84;;;6.21;80.27
78745;BME280;68064;53.100;8.824;2023-04-15T02:56:25;101085.97;;;6.25;80.70
78745;BME280;68064;53.100;8.824;2023-04-15T02:57:26;101081.66;;;6.24;80.39
78745;BME280;68064;53.100;8.824;2023-04-15T02:58:27;101074.72;;;6.21;79.42
78745;BME280;68064;53.100;8.824;2023-04-15T02:59:30;101077.53;;;6.26;81.29
78745;BME280;68064;53.100;8.824;2023-04-15T03:00:34;101081.88;;;6.27;80.76
78745;BME280;68064;53.100;8.824;2023-04-15T03:01:38;101079.50;;;6.30;81.83
78745;BME280;68064;53.100;8.824;2023-04-15T03:02:41;101076.00;;;6.28;80.77
78745;BME280;68064;53.100;8.824;2023-04-15T03:03:45;101076.88;;;6.28;82.45
78745;BME280;68064;53.100;8.824;2023-04-15T03:04:50;101082.94;;;6.30;81.06
78745;BME280;68064;53.100;8.824;2023-04-15T03:05:51;101075.50;;;6.33;81.16
78745;BME280;68064;53.100;8.824;2023-04-15T03:06:55;101079.00;;;6.35;81.19
78745;BME280;68064;53.100;8.824;2023-04-15T03:07:59;101071.31;;;6.34;80.63
78745;BME280;68064;53.100;8.824;2023-04-15T03:09:00;101073.72;;;6.32;81.02
78745;BME280;68064;53.100;8.824;2023-04-15T03:10:01;101073.94;;;6.35;81.79
78745;BME280;68064;53.100;8.824;2023-04-15T03:11:02;101075.50;;;6.33;81.23
78745;BME280;68064;53.100;8.824;2023-04-15T03:12:04;101069.53;;;6.33;81.44
78745;BME280;68064;53.100;8.824;2023-04-15T03:13:05;101076.47;;;6.35;82.37
78745;BME280;68064;53.100;8.824;2023-04-15T03:14:06;101079.00;;;6.35;80.80
78745;BME280;68064;53.100;8.824;2023-04-15T03:15:09;101080.97;;;6.39;82.31
78745;BME280;68064;53.100;8.824;2023-04-15T03:16:14;101080.97;;;6.39;82.66
78745;BME280;68064;53.100;8.824;2023-04-15T03:17:15;101080.00;;;6.37;81.00
78745;BME280;68064;53.100;8.824;2023-04-15T03:18:17;101075.88;;;6.39;82.41
78745;BME280;68064;53.100;8.824;2023-04-15T03:19:18;101074.72;;;6.34;82.47
78745;BME280;68064;53.100;8.824;2023-04-15T03:20:19;101068.84;;;6.35;81.46
78745;BME280;68064;53.100;8.824;2023-04-15T03:21:21;101072.56;;;6.41;81.87
78745;BME280;68064;53.100;8.824;2023-04-15T03:22:22;101071.75;;;6.42;81.69
78745;BME280;68064;53.100;8.824;2023-04-15T03:23:24;101056.44;;;6.40;82.18
78745;BME280;68064;53.100;8.824;2023-04-15T03:24:25;101069.16;;;6.40;80.99
78745;BME280;68064;53.100;8.824;2023-04-15T03:25:26;101060.81;;;6.43;81.84
78745;BME280;68064;53.100;8.824;2023-04-15T03:26:28;101068.56;;;6.44;80.84
78745;BME280;68064;53.100;8.824;2023-04-15T03:27:29;101066.03;;;6.44;78.87
78745;BME280;68064;53.100;8.824;2023-04-15T03:28:30;101066.78;;;6.43;80.21
78745;BME280;68064;53.100;8.824;2023-04-15T03:29:31;101058.47;;;6.46;79.45
78745;BME280;68064;53.100;8.824;2023-04-15T03:30:34;101063.84;;;6.50;81.23
78745;BME280;68064;53.100;8.824;2023-04-15T03:31:35;101067.28;;;6.51;81.94
78745;BME280;68064;53.100;8.824;2023-04-15T03:32:37;101062.09;;;6.49;81.48
78745;BME280;68064;53.100;8.824;2023-04-15T03:33:40;101048.88;;;6.42;81.31
78745;BME280;68064;53.100;8.824;2023-04-15T03:34:43;101048.81;;;6.40;81.30
78745;BME280;68064;53.100;8.824;2023-04-15T03:35:44;101068.94;;;6.50;82.02
78745;BME280;68064;53.100;8.824;2023-04-15T03:36:48;101056.63;;;6.43;81.47
78745;BME280;68064;53.100;8.824;2023-04-15T03:37:52;101046.16;;;6.38;81.77
78745;BME280;68064;53.100;8.824;2023-04-15T03:38:59;101056.94;;;6.48;81.50
78745;BME280;68064;53.100;8.824;2023-04-15T03:40:03;101062.97;;;6.50;80.03
78745;BME280;68064;53.100;8.824;2023-04-15T03:41:07;101052.69;;;6.48;81.02
78745;BME280;68064;53.100;8.824;2023-04-15T03:42:09;101058.97;;;6.53;81.37
78745;BME280;68064;53.100;8.824;2023-04-15T03:43:10;101063.34;;;6.56;82.06
78745;BME280;68064;53.100;8.824;2023-04-15T03:44:12;101066.00;;;6.57;82.57
78745;BME280;68064;53.100;8.824;2023-04-15T03:45:13;101054.84;;;6.55;82.67
78745;BME280;68064;53.100;8.824;2023-04-15T03:46:16;101042.94;;;6.41;81.09
78745;BME280;68064;53.100;8.824;2023-04-15T03:47:19;101058.97;;;6.53;80.75
78745;BME280;68064;53.100;8.824;2023-04-15T03:48:20;101050.16;;;6.48;80.44
78745;BME280;68064;53.100;8.824;2023-04-15T03:49:23;101043.13;;;6.44;81.29
78745;BME280;68064;53.100;8.824;2023-04-15T03:50:25;101059.16;;;6.56;81.83
78745;BME280;68064;53.100;8.824;2023-04-15T03:51:31;101056.50;;;6.55;81.08
78745;BME280;68064;53.100;8.824;2023-04-15T03:52:34;101055.63;;;6.54;80.85
78745;BME280;68064;53.100;8.824;2023-04-15T03:53:36;101049.47;;;6.51;79.35
78745;BME280;68064;53.100;8.824;2023-04-15T03:54:37;101059.22;;;6.58;78.76
78745;BME280;68064;53.100;8.824;2023-04-15T03:55:40;101062.06;;;6.62;82.06
78745;BME280;68064;53.100;8.824;2023-04-15T03:56:41;101061.19;;;6.62;82.09
78745;BME280;68064;53.100;8.824;2023-04-15T03:57:42;101062.25;;;6.65;82.22
78745;BME280;68064;53.100;8.824;2023-04-15T03:58:45;101050.75;;;6.57;81.02
78745;BME280;68064;53.100;8.824;2023-04-15T03:59:48;101047.03;;;6.52;80.56
78745;BME280;68064;53.100;8.824;2023-04-15T04:00:50;101049.56;;;6.52;80.03
78745;BME280;68064;53.100;8.824;2023-04-15T04:01:53;101049.25;;;6.61;82.44
78745;BME280;68064;53.100;8.824;2023-04-15T04:02:54;101062.94;;;6.63;81.67
78745;BME280;68064;53.100;8.824;2023-04-15T04:03:58;101061.38;;;6.65;81.47
78745;BME280;68064;53.100;8.824;2023-04-15T04:05:02;101060.59;;;6.66;81.78
78745;BME280;68064;53.100;8.824;2023-04-15T04:06:06;101061.38;;;6.65;81.72
78745;BME280;68064;53.100;8.824;2023-04-15T04:07:13;101040.34;;;6.54;81.33
78745;BME280;68064;53.100;8.824;2023-04-15T04:08:16;101050.31;;;6.64;80.88
78745;BME280;68064;53.100;8.824;2023-04-15T04:09:19;101065.09;;;6.70;81.17
78745;BME280;68064;53.100;8.824;2023-04-15T04:10:23;101038.81;;;6.56;80.55
78745;BME280;68064;53.100;8.824;2023-04-15T04:11:25;101057.34;;;6.68;79.91
78745;BME280;68064;53.100;8.824;2023-04-15T04:12:29;101061.56;;;6.68;80.81
78745;BME280;68064;53.100;8.824;2023-04-15T04:13:31;101059.81;;;6.67;80.53
78745;BME280;68064;53.100;8.824;2023-04-15T04:14:35;101058.94;;;6.66;81.21
78745;BME280;68064;53.100;8.824;2023-04-15T04:15:36;101060.00;;;6.70;81.30
78745;BME280;68064;53.100;8.824;2023-04-15T04:16:37;101056.41;;;6.66;80.04
78745;BME280;68064;53.100;8.824;2023-04-15T04:17:42;101054.63;;;6.65;81.67
78745;BME280;68064;53.100;8.824;2023-04-15T04:18:43;101059.03;;;6.68;80.60
78745;BME280;68064;53.100;8.824;2023-04-15T04:19:44;101067.72;;;6.71;81.18
78745;BME280;68064;53.100;8.824;2023-04-15T04:20:46;101064.41;;;6.72;81.75
78745;BME280;68064;53.100;8.824;2023-04-15T04:21:48;101059.72;;;6.65;79.54
78745;BME280;68064;53.100;8.824;2023-04-15T04:22:50;101066.13;;;6.73;82.52
78745;BME280;68064;53.100;8.824;2023-04-15T04:23:51;101058.47;;;6.59;80.20
78745;BME280;68064;53.100;8.824;2023-04-15T04:24:53;101054.81;;;6.68;81.16
78745;BME280;68064;53.100;8.824;2023-04-15T04:25:57;101065.75;;;6.67;78.37
78745;BME280;68064;53.100;8.824;2023-04-15T04:26:57;101067.13;;;6.75;81.96
78745;BME280;68064;53.100;8.824;2023-04-15T04:27:59;101069.69;;;6.75;83.04
78745;BME280;68064;53.100;8.824;2023-04-15T04:29:00;101062.63;;;6.71;83.41
78745;BME280;68064;53.100;8.824;2023-04-15T04:30:01;101053.75;;;6.65;82.53
78745;BME280;68064;53.100;8.824;2023-04-15T04:31:05;101069.50;;;6.72;81.89
78745;BME280;68064;53.100;8.824;2023-04-15T04:32:06;101056.41;;;6.66;81.67
78745;BME280;68064;53.100;8.824;2023-04-15T04:33:08;101069.56;;;6.74;81.71
78745;BME280;68064;53.100;8.824;2023-04-15T04:34:12;101067.91;;;6.74;81.43
78745;BME280;68064;53.100;8.824;2023-04-15T04:35:13;101062.56;;;6.70;80.81
78745;BME280;68064;53.100;8.824;2023-04-15T04:36:17;101070.56;;;6.76;82.82
78745;BME280;68064;53.100;8.824;2023-04-15T04:37:19;101064.22;;;6.69;81.51
78745;BME280;68064;53.100;8.824;2023-04-15T04:38:20;101058.13;;;6.67;81.00
78745;BME280;68064;53.100;8.824;2023-04-15T04:39:21;101070.56;;;6.76;82.76
78745;BME280;68064;53.100;8.824;2023-04-15T04:40:25;101069.94;;;6.80;83.38
78745;BME280;68064;53.100;8.824;2023-04-15T04:41:27;101074.19;;;6.79;83.75
78745;BME280;68064;53.100;8.824;2023-04-15T04:42:28;101075.03;;;6.80;84.12
78745;BME280;68064;53.100;8.824;2023-04-15T04:43:29;101069.69;;;6.75;83.77
78745;BME280;68064;53.100;8.824;2023-04-15T04:44:30;101061.66;;;6.69;81.94
78745;BME280;68064;53.100;8.824;2023-04-15T04:45:32;101077.38;;;6.77;80.73
78745;BME280;68064;53.100;8.824;2023-04-15T04:46:33;101059.38;;;6.74;83.04
78745;BME280;68064;53.100;8.824;2023-04-15T04:47:37;101062.13;;;6.77;81.32
78745;BME280;68064;53.100;8.824;2023-04-15T04:48:40;101069.88;;;6.78;82.08
78745;BME280;68064;53.100;8.824;2023-04-15T04:49:46;101067.31;;;6.78;83.10
78745;BME280;68064;53.100;8.824;2023-04-15T04:50:48;101069.34;;;6.84;84.43
78745;BME280;68064;53.100;8.824;2023-04-15T04:51:49;101066.72;;;6.82;84.32
78745;BME280;68064;53.100;8.824;2023-04-15T04:52:50;101053.41;;;6.73;84.93
78745;BME280;68064;53.100;8.824;2023-04-15T04:53:51;101064.84;;;6.80;83.49
78745;BME280;68064;53.100;8.824;2023-04-15T04:54:52;101066.63;;;6.81;84.54
78745;BME280;68064;53.100;8.824;2023-04-15T04:55:53;101071.63;;;6.79;83.04
78745;BME280;68064;53.100;8.824;2023-04-15T04:56:55;101055.88;;;6.72;82.34
78745;BME280;68064;53.100;8.824;2023-04-15T04:57:55;101069.94;;;6.80;81.47
78745;BME280;68064;53.100;8.824;2023-04-15T04:58:57;101065.16;;;6.84;84.78
78745;BME280;68064;53.100;8.824;2023-04-15T04:59:58;101069.88;;;6.78;83.40
78745;BME280;68064;53.100;8.824;2023-04-15T05:00:59;101070.63;;;6.77;82.41
78745;BME280;68064;53.100;8.824;2023-04-15T05:02:00;101071.00;;;6.83;81.80
78745;BME280;68064;53.100;8.824;2023-04-15T05:03:04;101067.50;;;6.81;80.21
78745;BME280;68064;53.100;8.824;2023-04-15T05:04:07;101076.09;;;6.83;78.91
78745;BME280;68064;53.100;8.824;2023-04-15T05:05:10;101056.25;;;6.78;80.60
78745;BME280;68064;53.100;8.824;2023-04-15T05:06:11;101070.53;;;6.89;82.48
78745;BME280;68064;53.100;8.824;2023-04-15T05:07:12;101057.03;;;6.77;80.57
78745;BME280;68064;53.100;8.824;2023-04-15T05:08:14;101065.72;;;6.80;80.32
78745;BME280;68064;53.100;8.824;2023-04-15T05:09:17;101081.84;;;6.94;82.75
78745;BME280;68064;53.100;8.824;2023-04-15T05:10:19;101076.59;;;6.91;83.70
78745;BME280;68064;53.100;8.824;2023-04-15T05:11:20;101061.66;;;6.82;83.72
78745;BME280;68064;53.100;8.824;2023-04-15T05:12:23;101083.50;;;6.93;84.04
78745;BME280;68064;53.100;8.824;2023-04-15T05:13:26;101085.88;;;6.90;85.73
78745;BME280;68064;53.100;8.824;2023-04-15T05:14:28;101078.47;;;6.80;84.68
78745;BME280;68064;53.100;8.824;2023-04-15T05:15:29;101084.72;;;6.85;82.44
78745;BME280;68064;53.100;8.824;2023-04-15T05:16:30;101073.56;;;6.83;81.70
78745;BME280;68064;53.100;8.824;2023-04-15T05:17:31;101074.38;;;6.82;82.79
78745;BME280;68064;53.100;8.824;2023-04-15T05:18:32;101079.81;;;6.88;82.67
78745;BME280;68064;53.100;8.824;2023-04-15T05:19:34;101073.16;;;6.90;84.18
78745;BME280;68064;53.100;8.824;2023-04-15T05:20:36;101082.63;;;6.93;85.14
78745;BME280;68064;53.100;8.824;2023-04-15T05:21:37;101084.41;;;6.94;84.38
78745;BME280;68064;53.100;8.824;2023-04-15T05:22:38;101063.88;;;6.78;81.76
78745;BME280;68064;53.100;8.824;2023-04-15T05:23:39;101081.56;;;6.89;83.01
78745;BME280;68064;53.100;8.824;2023-04-15T05:24:40;101080.78;;;6.90;82.42
78745;BME280;68064;53.100;8.824;2023-04-15T05:25:44;101076.47;;;6.89;82.16
78745;BME280;68064;53.100;8.824;2023-04-15T05:26:45;101080.78;;;6.90;82.57
78745;BME280;68064;53.100;8.824;2023-04-15T05:27:46;101082.94;;;6.98;84.89